VNKT/KTM METAR and TAF weather

Enter ICAO airport designator
Station Type Date Time Source
VNKT METAR 2019/08/22 09:50 UTC NOAA

VNKT 220950Z 26005KT 230V310 8000 FEW020 FEW025TCU SCT030 29/22 Q1010 NOSIG


Station Type Date Time Source
VNKT Decoded METAR 2019/08/22 09:50 UTC NOAA

Station name not available
Aug 22, 2019 - 05:50 AM EDT / 2019.08.22 0950 UTC
Wind: from the W (260 degrees) at 6 MPH (5 KT) (direction variable):0
Visibility: 4 mile(s):0
Sky conditions: partly cloudy
Weather: Towering cumulus clouds observed
Temperature: 84 F (29 C)
Dew Point: 71 F (22 C)
Relative Humidity: 65%
Pressure (altimeter): 29.83 in. Hg (1010 hPa)
ob: VNKT 220950Z 26005KT 230V310 8000 FEW020 FEW025TCU SCT030 29/22 Q1010 NOSIG
cycle: 10

Station Type Date Time Source
VNKT TAF 2019/08/22 06:42 UTC NOAA

TAF TAF VNKT 220500Z 2206/2306 10004KT 7000 FEW015 SCT250
BECMG 2207/2209 21010KT 8000 FEW020 SCT250
BECMG 2214/2215 14004KT 6000 FEW015 SCT025 BKN00 PROB40 2215/2221 VRB07KT 4000 -RA/SHRA FEW025CB OVC090
BECMG 2300/2302 00000KT 4000 -RA/BR FEW010 SCT025 BKN100
BECMG 2304/2305 12004KT 6000 FEW015 SCT100

Example: see airport list